Dalton, MN (56324)

3:17 PM CDT on July 22, 2014 (GMT -0500)
Elbow Lake (KY63) Elev 1204 ft | 45.99 °N, 95.99 °W | Change Station

Current weather conditions updated 19 minutes ago

Clear
Clear
73 °F
Feels Like 73 °F
N
14
Wind Variable Wind from North
Gusts 22 mph

Today is forecast to be Much Cooler than yesterday.

Today
High -- | Low -- °F
--% Chance of Precip.
Yesterday
High -- | Low -- °F
Precip. -- in
5:53 AM 9:05 PM
Waning Crescent, 15% visible
Pressure 30.13 in
Visibility 10.0 miles
Clouds Clear
Dew Point 58 °F
Humidity 58%
Rainfall 0.00 in
Snow Depth Not available.
UV 9 out of 12
Pollen 4.00 out of 12
Air Quality Not available.
Flu Activity Sporadic
METAR KY63 221958Z AUTO 35012G19KT 10SM CLR 23/14 A3013 RMK AO2 T02300142

More Conditions Fewer Conditions

Pressure 30.13 in
Visibility 10.0 miles
Clouds Clear
Dew Point 58 °F
Humidity 58%
Rainfall 0.00 in
Snow Depth Not available.
UV 9 out of 12
Pollen 4.00 out of 12
Air Quality Not available.
Flu Activity Sporadic
METAR KY63 221958Z AUTO 35012G19KT 10SM CLR 23/14 A3013 RMK AO2 T02300142

More Conditions Fewer Conditions

10-Day Weather Forecast

Almanac

Astronomy

Jul. 22, 2014 Rise Set
Actual Time 5:53 AM CDT 9:05 PM CDT
Civil Twilight 5:17 AM CDT 9:41 PM CDT
Nautical Twilight 4:30 AM CDT 10:27 PM CDT
Astronomical Twilight 3:32 AM CDT 11:25 PM CDT
Moon 2:30 AM CDT 5:42 PM CDT
Length of Visible Light 16h 23m
Length of Day
15h 11m
Tomorrow will be 2m 8s shorter.
Waning Crescent, 15% of the Moon is Illuminated
Today
Waning Crescent
Jul 26
New
Aug 3
First Quarter
Aug 10
Full
Aug 17
Last Quarter

Today's Extremes

State Highs State Lows

Community

WunderPhotos

Upload Photos

1,736,345 photos uploaded!

Nearby

Snow Depth

Station Depth Elevation
No new snow has been reported.

Earthquake Activity

City Distance Mag. Time & Date
No recent earthquake activity has been reported nearby.
Minimum magnitude displayed is 2.5.

Coastal Water Temperatures

Place Temperature
No Stations Reporting

Nearby Weather Stations

Station Location Temp. Heat Index Dew Point Humidity Wind Precip. Elev Updated Type
Gardonville, Brandon, MN 72.8 °F 77 °F 55 °F 54% NNE  at  15.0 mph 0.07 in / hr 1411 ft 3:17 PM CDT Rapid Fire
Hoffman MN, Hoffman, MN 79.7 °F 81 °F 58 °F 50% NNW  at  13.6 mph 0.00 in / hr 1240 ft 3:16 PM CDT Normal

Show More Stations Show Fewer Stations